Caseros, Argentina
Current Conditions -  °F | °C
As of 7:00 PM on Monday 22 Dec 2014 (Local Time) from SABE Reporting Station
Clear Clear  
Wind Chill: 21°   Ceiling: Unl
Heat Index: 21°   Visibility: 6mi
Dew Point: 10°   Wind: 12mph
Humidity: 49%   Direction: 200°SSW
Pressure: 30.09"   Gusts: NA
Location:  34.6°S, 58.55°W
Report Text: SABE 222200Z 20010KT CAVOK 21/10 Q1019
Loading
Personal Weather Stations






























Interactive Weather Map New forecast layout! Learn more

10-Day Weather Forecast

Advertisements
Track Severe Weather on mobile